createdAt,value
2023-04-06T00:01:58.911Z,6.26
2023-04-06T00:04:31.429Z,6.24
2023-04-06T00:07:03.868Z,6.20
2023-04-06T00:09:36.246Z,6.14
2023-04-06T00:12:08.794Z,6.15
2023-04-06T00:14:41.839Z,6.15
2023-04-06T00:17:14.040Z,6.15
2023-04-06T00:19:46.942Z,6.10
2023-04-06T00:22:19.137Z,6.09
2023-04-06T00:24:51.303Z,6.10
2023-04-06T00:27:23.459Z,6.11
2023-04-06T00:29:55.674Z,6.06
2023-04-06T00:32:29.120Z,6.06
2023-04-06T00:35:06.652Z,6.01
2023-04-06T00:37:38.819Z,5.99
2023-04-06T00:40:11.652Z,5.98
2023-04-06T00:42:43.982Z,5.93
2023-04-06T00:45:16.239Z,5.93
2023-04-06T00:47:48.540Z,5.89
2023-04-06T00:50:20.952Z,5.86
2023-04-06T00:52:53.170Z,5.85
2023-04-06T00:55:25.818Z,5.85
2023-04-06T00:58:01.409Z,5.85
2023-04-06T01:00:34.037Z,5.83
2023-04-06T01:03:08.071Z,5.81
2023-04-06T01:05:41.900Z,5.80
2023-04-06T01:08:14.879Z,5.78
2023-04-06T01:10:47.094Z,5.74
2023-04-06T01:13:22.211Z,5.68
2023-04-06T01:15:54.709Z,5.67
2023-04-06T01:18:28.919Z,5.68
2023-04-06T01:21:01.321Z,5.65
2023-04-06T01:23:33.464Z,5.60
2023-04-06T01:26:05.953Z,5.59
2023-04-06T01:28:38.727Z,5.55
2023-04-06T01:31:11.732Z,5.56
2023-04-06T01:33:44.045Z,5.54
2023-04-06T01:36:16.829Z,5.52
2023-04-06T01:38:49.302Z,5.50
2023-04-06T01:41:21.750Z,5.46
2023-04-06T01:43:55.906Z,5.46
2023-04-06T01:46:28.263Z,5.45
2023-04-06T01:49:00.893Z,5.43
2023-04-06T01:51:33.079Z,5.43
2023-04-06T01:54:06.083Z,5.41
2023-04-06T01:56:38.438Z,5.40
2023-04-06T01:59:10.981Z,5.44
2023-04-06T02:01:43.602Z,5.41
2023-04-06T02:04:17.326Z,5.33
2023-04-06T02:06:49.584Z,5.33
2023-04-06T02:09:21.941Z,5.29
2023-04-06T02:11:54.241Z,5.26
2023-04-06T02:14:27.510Z,5.24
2023-04-06T02:16:59.879Z,5.22
2023-04-06T02:19:32.028Z,5.21
2023-04-06T02:22:04.365Z,5.18
2023-04-06T02:24:36.838Z,5.18
2023-04-06T02:27:08.990Z,5.17
2023-04-06T02:29:41.227Z,5.15
2023-04-06T02:32:13.403Z,5.10
2023-04-06T02:34:45.533Z,5.08
2023-04-06T02:37:17.930Z,5.07
2023-04-06T02:39:50.210Z,5.01
2023-04-06T02:42:22.437Z,5.02
2023-04-06T02:44:54.690Z,5.05
2023-04-06T02:47:27.304Z,5.04
2023-04-06T02:49:59.747Z,5.04
2023-04-06T02:52:31.889Z,4.98
2023-04-06T02:55:04.528Z,4.98
2023-04-06T02:57:37.030Z,4.95
2023-04-06T03:00:10.024Z,4.91
2023-04-06T03:02:42.234Z,4.89
2023-04-06T03:05:17.544Z,4.87
2023-04-06T03:07:49.716Z,4.87
2023-04-06T03:10:21.944Z,4.88
2023-04-06T03:12:54.131Z,4.85
2023-04-06T03:15:26.469Z,4.82
2023-04-06T03:18:00.439Z,4.82
2023-04-06T03:20:32.890Z,4.77
2023-04-06T03:23:05.432Z,4.75
2023-04-06T03:25:37.563Z,4.79
2023-04-06T03:28:09.988Z,4.77
2023-04-06T03:30:42.120Z,4.71
2023-04-06T03:33:14.297Z,4.74
2023-04-06T03:35:46.641Z,4.72
2023-04-06T03:38:18.975Z,4.71
2023-04-06T03:40:51.291Z,4.70
2023-04-06T03:43:23.552Z,4.69
2023-04-06T03:45:56.178Z,4.68
2023-04-06T03:48:31.795Z,4.61
2023-04-06T03:51:04.314Z,4.62
2023-04-06T03:53:38.490Z,4.63
2023-04-06T03:56:10.980Z,4.59
2023-04-06T03:58:45.862Z,4.57
2023-04-06T04:01:22.095Z,4.60
2023-04-06T04:03:55.142Z,4.61
2023-04-06T04:06:27.650Z,4.58
2023-04-06T04:08:59.895Z,4.59
2023-04-06T04:11:32.127Z,4.58
2023-04-06T04:14:04.751Z,4.58
2023-04-06T04:16:37.514Z,4.57
2023-04-06T04:19:11.156Z,4.52
2023-04-06T04:21:46.195Z,4.51
2023-04-06T04:24:19.242Z,4.51
2023-04-06T04:26:51.623Z,4.51
2023-04-06T04:29:24.848Z,4.47
2023-04-06T04:31:57.832Z,4.45
2023-04-06T04:34:30.205Z,4.43
2023-04-06T04:37:02.337Z,4.41
2023-04-06T04:39:34.727Z,4.41
2023-04-06T04:42:07.041Z,4.37
2023-04-06T04:44:39.361Z,4.35
2023-04-06T04:47:13.613Z,4.33
2023-04-06T04:49:45.845Z,4.30
2023-04-06T04:52:18.877Z,4.32
2023-04-06T04:54:51.153Z,4.29
2023-04-06T04:57:23.405Z,4.28
2023-04-06T04:59:57.889Z,4.28
2023-04-06T05:02:30.324Z,4.30
2023-04-06T05:05:02.590Z,4.30
2023-04-06T05:07:35.162Z,4.29
2023-04-06T05:10:08.189Z,4.31
2023-04-06T05:12:41.131Z,4.27
2023-04-06T05:15:13.655Z,4.26
2023-04-06T05:17:45.961Z,4.28
2023-04-06T05:20:18.689Z,4.32
2023-04-06T05:22:50.948Z,4.36
2023-04-06T05:25:23.271Z,4.41
2023-04-06T05:27:55.561Z,4.49
2023-04-06T05:30:27.809Z,4.48
2023-04-06T05:33:13.847Z,4.47
2023-04-06T05:35:46.533Z,4.49
2023-04-06T05:38:18.754Z,4.50
2023-04-06T05:40:50.942Z,4.49
2023-04-06T05:43:23.391Z,4.48
2023-04-06T05:45:55.606Z,4.48
2023-04-06T05:48:27.993Z,4.46
2023-04-06T05:51:01.346Z,4.51
2023-04-06T05:53:34.244Z,4.60
2023-04-06T05:56:09.576Z,4.65
2023-04-06T05:58:42.813Z,4.66
2023-04-06T06:01:15.277Z,4.69
2023-04-06T06:03:47.482Z,4.69
2023-04-06T06:06:19.843Z,4.77
2023-04-06T06:08:52.467Z,4.73
2023-04-06T06:11:24.656Z,4.78
2023-04-06T06:13:57.580Z,4.79
2023-04-06T06:16:29.847Z,4.76
2023-04-06T06:19:02.189Z,4.81
2023-04-06T06:21:34.449Z,4.89
2023-04-06T06:24:07.897Z,4.98
2023-04-06T06:26:40.979Z,5.03
2023-04-06T06:29:13.394Z,5.08
2023-04-06T06:31:45.762Z,5.08
2023-04-06T06:34:18.593Z,5.13
2023-04-06T06:36:52.707Z,5.19
2023-04-06T06:39:25.033Z,5.17
2023-04-06T06:41:57.809Z,5.24
2023-04-06T06:44:30.318Z,5.28
2023-04-06T06:47:02.557Z,5.29
2023-04-06T06:49:35.289Z,5.39
2023-04-06T06:52:07.490Z,5.33
2023-04-06T06:54:39.657Z,5.47
2023-04-06T06:57:12.046Z,5.54
2023-04-06T06:59:44.488Z,5.53
2023-04-06T07:02:16.734Z,5.52
2023-04-06T07:04:52.313Z,5.59
2023-04-06T07:07:24.688Z,5.76
2023-04-06T07:09:56.938Z,5.76
2023-04-06T07:12:29.208Z,5.81
2023-04-06T07:15:02.256Z,5.98
2023-04-06T07:17:34.547Z,6.09
2023-04-06T07:20:07.272Z,6.24
2023-04-06T07:22:46.267Z,6.41
2023-04-06T07:25:18.711Z,6.57
2023-04-06T07:27:50.926Z,6.59
2023-04-06T07:30:23.458Z,6.68
2023-04-06T07:32:56.980Z,6.78
2023-04-06T07:35:31.383Z,7.03
2023-04-06T07:38:04.047Z,7.23
2023-04-06T07:40:36.476Z,7.51
2023-04-06T07:43:08.853Z,7.60
2023-04-06T07:45:41.224Z,7.77
2023-04-06T07:48:15.812Z,8.02
2023-04-06T07:50:48.026Z,8.34
2023-04-06T07:53:20.218Z,8.53
2023-04-06T07:55:52.545Z,8.74
2023-04-06T07:58:24.999Z,8.97
2023-04-06T08:00:59.262Z,9.12
2023-04-06T08:03:31.661Z,9.45
2023-04-06T08:06:04.975Z,9.61
2023-04-06T08:08:37.459Z,9.78
2023-04-06T08:11:10.746Z,10.03
2023-04-06T08:13:42.924Z,10.17
2023-04-06T08:16:18.207Z,10.25
2023-04-06T08:18:50.578Z,10.20
2023-04-06T08:21:26.391Z,10.62
2023-04-06T08:23:59.112Z,11.00
2023-04-06T08:26:31.345Z,11.71
2023-04-06T08:29:05.272Z,12.86
2023-04-06T08:31:38.263Z,12.92
2023-04-06T08:34:13.248Z,14.12
2023-04-06T08:36:47.187Z,15.15
2023-04-06T08:39:26.547Z,16.20
2023-04-06T08:42:01.155Z,16.64
2023-04-06T08:44:33.913Z,17.55
2023-04-06T08:47:07.031Z,18.71
2023-04-06T08:49:40.134Z,19.49
2023-04-06T08:52:14.571Z,20.29
2023-04-06T08:54:47.107Z,20.81
2023-04-06T08:57:20.630Z,20.51
2023-04-06T08:59:54.082Z,21.11
2023-04-06T09:02:27.011Z,21.48
2023-04-06T09:05:00.764Z,21.28
2023-04-06T09:07:33.160Z,22.16
2023-04-06T09:10:07.628Z,22.24
2023-04-06T09:12:39.929Z,21.21
2023-04-06T09:15:25.166Z,21.83
2023-04-06T09:17:58.029Z,22.28
2023-04-06T09:20:30.769Z,22.23
2023-04-06T09:23:03.069Z,21.64
2023-04-06T09:25:41.694Z,21.43
2023-04-06T09:31:52.563Z,21.14
2023-04-06T09:34:27.705Z,20.92
2023-04-06T09:37:02.539Z,21.54
2023-04-06T09:39:36.653Z,21.19
2023-04-06T09:42:09.774Z,21.93
2023-04-06T09:44:51.594Z,22.91
2023-04-06T09:47:25.873Z,22.63
2023-04-06T09:50:39.578Z,22.20
2023-04-06T09:53:13.741Z,22.71
2023-04-06T09:56:07.113Z,23.00
2023-04-06T10:07:25.334Z,24.85
2023-04-06T10:10:01.442Z,24.91
2023-04-06T10:12:33.814Z,24.79
2023-04-06T10:15:06.852Z,24.45
2023-04-06T10:17:39.096Z,24.90
2023-04-06T10:20:24.586Z,23.99
2023-04-06T10:23:13.351Z,23.74
2023-04-06T10:26:01.292Z,24.42
2023-04-06T10:28:37.241Z,24.80
2023-04-06T10:31:10.703Z,24.93
2023-04-06T10:38:04.086Z,25.41
2023-04-06T10:40:45.870Z,25.33
2023-04-06T10:49:20.445Z,25.93
2023-04-06T10:56:32.987Z,25.23
2023-04-06T11:11:27.048Z,27.78
2023-04-06T11:14:02.300Z,27.72
2023-04-06T11:16:35.219Z,26.23
2023-04-06T11:19:08.034Z,25.78
2023-04-06T11:21:49.820Z,26.12
2023-04-06T11:24:25.709Z,26.62
2023-04-06T11:26:59.881Z,28.02
2023-04-06T11:29:36.001Z,27.91
2023-04-06T11:32:10.895Z,27.02
2023-04-06T11:34:43.341Z,27.61
2023-04-06T11:37:15.888Z,26.89
2023-04-06T11:39:58.344Z,26.13
2023-04-06T11:42:42.947Z,27.36
2023-04-06T11:45:17.281Z,26.86
2023-04-06T11:51:02.248Z,26.15
2023-04-06T11:53:59.459Z,25.28
2023-04-06T11:56:31.959Z,25.47
2023-04-06T11:59:04.670Z,26.45
2023-04-06T12:01:47.058Z,26.74
2023-04-06T12:04:19.377Z,27.61
2023-04-06T12:06:55.394Z,27.03
2023-04-06T12:09:29.887Z,27.66
2023-04-06T12:12:12.525Z,28.16
2023-04-06T12:14:45.094Z,28.93
2023-04-06T12:17:17.564Z,28.87
2023-04-06T12:19:49.776Z,28.58
2023-04-06T12:22:42.397Z,28.56
2023-04-06T12:25:18.326Z,28.89
2023-04-06T12:27:51.108Z,27.70
2023-04-06T12:30:23.407Z,28.27
2023-04-06T12:33:34.386Z,27.20
2023-04-06T12:36:14.551Z,26.42
2023-04-06T12:38:52.550Z,26.27
2023-04-06T12:41:24.789Z,26.40
2023-04-06T12:43:57.116Z,27.01
2023-04-06T12:47:08.779Z,27.42
2023-04-06T12:49:40.946Z,25.89
2023-04-06T12:52:13.093Z,25.25
2023-04-06T12:54:46.153Z,25.79
2023-04-06T12:57:18.550Z,26.01
2023-04-06T13:06:28.912Z,25.23
2023-04-06T13:09:01.540Z,24.59
2023-04-06T13:11:36.968Z,24.02
2023-04-06T13:14:09.307Z,24.30
2023-04-06T13:16:41.691Z,24.49
2023-04-06T13:19:14.026Z,24.52
2023-04-06T13:21:49.343Z,23.99
2023-04-06T13:24:23.033Z,24.73
2023-04-06T13:26:55.260Z,24.58
2023-04-06T13:29:29.601Z,25.26
2023-04-06T13:32:02.232Z,24.46
2023-04-06T13:34:34.506Z,24.49
2023-04-06T13:37:08.641Z,24.67
2023-04-06T13:39:41.268Z,23.90
2023-04-06T13:42:16.247Z,23.52
2023-04-06T13:44:48.858Z,24.03
2023-04-06T13:47:22.050Z,23.72
2023-04-06T13:49:54.438Z,23.45
2023-04-06T13:52:26.625Z,23.07
2023-04-06T13:54:58.721Z,23.43
2023-04-06T13:57:32.944Z,23.23
2023-04-06T14:00:08.450Z,23.16
2023-04-06T14:02:41.689Z,22.93
2023-04-06T14:05:14.148Z,22.48
2023-04-06T14:07:47.809Z,22.06
2023-04-06T14:10:22.406Z,22.20
2023-04-06T14:12:56.268Z,22.30
2023-04-06T14:15:29.291Z,22.28
2023-04-06T14:18:01.763Z,21.88
2023-04-06T14:20:34.334Z,22.02
2023-04-06T14:23:09.327Z,21.90
2023-04-06T14:25:41.627Z,21.92
2023-04-06T14:28:13.830Z,21.31
2023-04-06T14:30:51.641Z,21.58
2023-04-06T14:33:23.913Z,21.44
2023-04-06T14:35:56.254Z,21.15
2023-04-06T14:38:29.167Z,21.16
2023-04-06T14:41:01.675Z,21.57
2023-04-06T14:43:35.160Z,21.62
2023-04-06T14:46:09.605Z,20.32
2023-04-06T14:48:41.755Z,20.04
2023-04-06T14:51:16.272Z,19.75
2023-04-06T14:53:48.702Z,19.44
2023-04-06T14:56:23.281Z,18.75
2023-04-06T14:58:58.250Z,18.41
2023-04-06T15:01:31.244Z,18.54
2023-04-06T15:04:06.035Z,18.17
2023-04-06T15:06:39.153Z,18.23
2023-04-06T15:09:11.235Z,18.46
2023-04-06T15:11:45.501Z,18.31
2023-04-06T15:14:17.691Z,18.05
2023-04-06T15:16:49.948Z,18.08
2023-04-06T15:19:24.344Z,18.10
2023-04-06T15:21:56.576Z,18.31
2023-04-06T15:24:28.683Z,18.25
2023-04-06T15:27:00.975Z,18.18
2023-04-06T15:29:37.428Z,18.21
2023-04-06T15:32:10.625Z,18.34
2023-04-06T15:34:43.088Z,18.26
2023-04-06T15:37:25.346Z,18.38
2023-04-06T15:39:59.504Z,18.15
2023-04-06T15:42:32.766Z,17.80
2023-04-06T15:45:05.668Z,17.74
2023-04-06T15:47:47.386Z,17.30
2023-04-06T15:50:20.042Z,16.69
2023-04-06T15:52:52.566Z,16.55
2023-04-06T15:55:25.080Z,16.43
2023-04-06T15:57:57.621Z,16.32
2023-04-06T16:00:30.204Z,16.40
2023-04-06T16:03:02.732Z,16.37
2023-04-06T16:05:39.980Z,16.33
2023-04-06T16:08:21.258Z,16.12
2023-04-06T16:10:53.447Z,16.03
2023-04-06T16:13:25.749Z,16.00
2023-04-06T16:15:57.957Z,15.99
2023-04-06T16:18:32.521Z,16.07
2023-04-06T16:21:06.015Z,16.06
2023-04-06T16:23:38.256Z,16.04
2023-04-06T16:26:15.748Z,15.88
2023-04-06T16:28:48.125Z,15.77
2023-04-06T16:31:22.720Z,15.64
2023-04-06T16:33:57.370Z,15.68
2023-04-06T16:36:35.133Z,15.62
2023-04-06T16:39:08.910Z,15.64
2023-04-06T16:41:41.199Z,15.62
2023-04-06T16:44:13.464Z,15.59
2023-04-06T16:46:46.487Z,15.52
2023-04-06T16:49:20.409Z,15.49
2023-04-06T16:51:52.806Z,15.44
2023-04-06T16:54:25.091Z,15.45
2023-04-06T16:56:57.873Z,15.41
2023-04-06T16:59:31.445Z,15.32
2023-04-06T17:02:03.858Z,15.19
2023-04-06T17:04:37.872Z,15.16
2023-04-06T17:07:11.174Z,15.13
2023-04-06T17:09:43.477Z,15.07
2023-04-06T17:12:16.006Z,15.06
2023-04-06T17:14:48.437Z,15.07
2023-04-06T17:17:20.913Z,14.97
2023-04-06T17:19:53.294Z,14.91
2023-04-06T17:22:25.719Z,14.86
2023-04-06T17:24:58.161Z,14.80
2023-04-06T17:27:30.629Z,14.70
2023-04-06T17:30:06.884Z,14.68
2023-04-06T17:32:39.416Z,14.54
2023-04-06T17:35:12.741Z,14.49
2023-04-06T17:37:45.976Z,14.45
2023-04-06T17:40:18.970Z,14.41
2023-04-06T17:42:51.410Z,14.31
2023-04-06T17:45:23.698Z,14.20
2023-04-06T17:47:55.982Z,14.15
2023-04-06T17:50:28.601Z,14.16
2023-04-06T17:53:01.124Z,14.09
2023-04-06T17:55:33.585Z,13.99
2023-04-06T17:58:08.918Z,13.95
2023-04-06T18:00:41.490Z,13.93
2023-04-06T18:03:13.814Z,13.84
2023-04-06T18:05:46.353Z,13.77
2023-04-06T18:08:18.596Z,13.74
2023-04-06T18:10:50.956Z,13.68
2023-04-06T18:13:23.189Z,13.63
2023-04-06T18:15:55.800Z,13.56
2023-04-06T18:18:29.324Z,13.54
2023-04-06T18:21:05.723Z,13.44
2023-04-06T18:23:38.418Z,13.38
2023-04-06T18:26:18.268Z,13.36
2023-04-06T18:28:51.119Z,13.29
2023-04-06T18:31:23.480Z,13.26
2023-04-06T18:33:56.302Z,13.16
2023-04-06T18:36:32.088Z,13.09
2023-04-06T18:39:04.525Z,13.10
2023-04-06T18:41:36.834Z,13.06
2023-04-06T18:44:09.457Z,13.08
2023-04-06T18:46:45.187Z,13.02
2023-04-06T18:49:17.516Z,12.94
2023-04-06T18:51:49.966Z,12.90
2023-04-06T18:54:22.488Z,12.90
2023-04-06T18:56:54.666Z,12.88
2023-04-06T18:59:30.454Z,12.78
2023-04-06T19:02:02.951Z,12.71
2023-04-06T19:04:35.318Z,12.74
2023-04-06T19:07:07.817Z,12.74
2023-04-06T19:09:40.111Z,12.70
2023-04-06T19:12:13.004Z,12.62
2023-04-06T19:14:51.717Z,12.51
2023-04-06T19:17:24.044Z,12.41
2023-04-06T19:19:57.950Z,12.35
2023-04-06T19:22:30.286Z,12.32
2023-04-06T19:25:02.802Z,12.29
2023-04-06T19:27:35.311Z,12.26
2023-04-06T19:30:09.940Z,12.20
2023-04-06T19:32:43.208Z,12.17
2023-04-06T19:35:19.471Z,12.21
2023-04-06T19:37:51.694Z,12.19
2023-04-06T19:40:24.059Z,12.17
2023-04-06T19:42:59.975Z,12.12
2023-04-06T19:45:32.370Z,12.07
2023-04-06T19:48:05.583Z,12.05
2023-04-06T19:50:37.853Z,12.00
2023-04-06T19:53:10.123Z,11.95
2023-04-06T19:55:42.512Z,11.93
2023-04-06T19:58:15.289Z,11.92
2023-04-06T20:00:47.462Z,11.87
2023-04-06T20:03:20.241Z,11.84
2023-04-06T20:05:52.771Z,11.82
2023-04-06T20:08:25.076Z,11.84
2023-04-06T20:11:07.851Z,11.83
2023-04-06T20:13:40.269Z,11.84
2023-04-06T20:16:12.509Z,11.81
2023-04-06T20:18:44.832Z,11.77
2023-04-06T20:21:17.077Z,11.75
2023-04-06T20:23:49.209Z,11.71
2023-04-06T20:26:21.818Z,11.76
2023-04-06T20:28:54.064Z,11.74
2023-04-06T20:31:27.995Z,11.69
2023-04-06T20:34:00.881Z,11.67
2023-04-06T20:36:34.459Z,11.61
2023-04-06T20:39:07.376Z,11.60
2023-04-06T20:41:39.587Z,11.58
2023-04-06T20:44:11.897Z,11.63
2023-04-06T20:46:46.110Z,11.64
2023-04-06T20:49:18.919Z,11.56
2023-04-06T20:51:53.234Z,11.52
2023-04-06T20:54:26.106Z,11.52
2023-04-06T20:57:01.078Z,11.51
2023-04-06T20:59:36.407Z,11.34
2023-04-06T21:02:13.676Z,11.30
2023-04-06T21:04:46.095Z,11.30
2023-04-06T21:07:18.353Z,11.23
2023-04-06T21:09:50.540Z,11.19
2023-04-06T21:12:22.758Z,11.06
2023-04-06T21:14:55.001Z,10.91
2023-04-06T21:17:27.197Z,10.92
2023-04-06T21:19:59.410Z,10.85
2023-04-06T21:22:31.455Z,10.68
2023-04-06T21:25:03.776Z,10.56
2023-04-06T21:27:36.049Z,10.44
2023-04-06T21:30:10.762Z,10.44
2023-04-06T21:32:43.273Z,10.40
2023-04-06T21:35:16.848Z,10.39
2023-04-06T21:37:48.938Z,10.39
2023-04-06T21:40:21.174Z,10.33
2023-04-06T21:42:53.334Z,10.30
2023-04-06T21:45:25.654Z,10.23
2023-04-06T21:47:58.005Z,10.17
2023-04-06T21:50:31.336Z,10.11
2023-04-06T21:53:03.464Z,10.10
2023-04-06T21:55:36.310Z,10.08
2023-04-06T21:58:08.443Z,10.14
2023-04-06T22:00:43.054Z,10.13
2023-04-06T22:03:15.886Z,10.08
2023-04-06T22:05:48.146Z,10.09
2023-04-06T22:08:32.783Z,10.10
2023-04-06T22:11:14.329Z,10.07
2023-04-06T22:13:46.999Z,9.98
2023-04-06T22:16:19.085Z,9.90
2023-04-06T22:18:51.136Z,9.84
2023-04-06T22:21:23.260Z,9.89
2023-04-06T22:23:55.440Z,9.96
2023-04-06T22:26:28.360Z,9.97
2023-04-06T22:29:00.591Z,9.98
2023-04-06T22:31:33.355Z,9.98
2023-04-06T22:34:05.711Z,10.00
2023-04-06T22:36:37.863Z,9.93
2023-04-06T22:39:10.026Z,9.84
2023-04-06T22:41:42.128Z,9.84
2023-04-06T22:44:15.556Z,9.81
2023-04-06T22:46:47.874Z,9.83
2023-04-06T22:49:19.967Z,9.82
2023-04-06T22:51:52.050Z,9.83
2023-04-06T22:54:24.102Z,9.78
2023-04-06T22:56:56.886Z,9.66
2023-04-06T22:59:29.203Z,9.58
2023-04-06T23:02:01.573Z,9.63
2023-04-06T23:04:34.894Z,9.64
2023-04-06T23:07:07.664Z,9.61
2023-04-06T23:09:42.097Z,9.58
2023-04-06T23:12:14.270Z,9.50
2023-04-06T23:14:47.101Z,9.44
2023-04-06T23:17:19.665Z,9.41
2023-04-06T23:19:52.406Z,9.38
2023-04-06T23:22:24.493Z,9.30
2023-04-06T23:24:56.656Z,9.32
2023-04-06T23:27:28.808Z,9.37
2023-04-06T23:30:01.008Z,9.37
2023-04-06T23:32:33.212Z,9.34
2023-04-06T23:35:06.353Z,9.31
2023-04-06T23:37:38.537Z,9.27
2023-04-06T23:40:11.086Z,9.28
2023-04-06T23:42:44.084Z,9.18
2023-04-06T23:45:16.654Z,9.21
2023-04-06T23:47:50.689Z,9.19
2023-04-06T23:50:22.908Z,9.09
2023-04-06T23:52:55.073Z,9.08
2023-04-06T23:55:28.551Z,9.00
2023-04-06T23:58:02.606Z,8.99
